• Join FlightAware (Why Join?)
  • Login
  • US Flag 
12:12AM EDT


 

Airport Tracker/Info


-or-


 

Live Flight TrackerFlight Track Log ✈ TAM3119 ✈ 11-Nov-2013 ✈ SBSP / CGH - SBNF / NVT

Flight Track Log - Related Links

Times and Time Zones

All times are in EST time to prevent confusion due to time zone crossing. See the TAM3119 flight status page for this flight to view local times or setup timezone preferences in your user account.

Time Position Orientation Groundspeed Altitude Reporting Facility
EST Latitude Longitude Course Direction KTS MPH feet Rate Location/Type
03:38AM -24.0343 -46.8988 209° Southwest  Level Estimated
03:39AM -24.0924 -46.9338 209° Southwest  Level Estimated
03:40AM -24.1506 -46.9687 209° Southwest  Level Estimated
03:41AM -24.2088 -47.0037 209° Southwest  Level Estimated
03:42AM -24.2670 -47.0387 209° Southwest  Level Estimated
03:43AM -24.3251 -47.0737 209° Southwest  Level Estimated
03:44AM -24.3833 -47.1088 209° Southwest  Level Estimated
03:45AM -24.4414 -47.1439 209° Southwest  Level Estimated
03:46AM -24.4996 -47.1790 209° Southwest  Level Estimated
03:47AM -24.5577 -47.2142 209° Southwest  Level Estimated
03:48AM -24.6158 -47.2494 209° Southwest  Level Estimated
03:49AM -24.6739 -47.2846 209° Southwest  Level Estimated
03:50AM -24.7320 -47.3199 209° Southwest  Level Estimated
03:51AM -24.7901 -47.3552 209° Southwest  Level Estimated
03:52AM -24.8482 -47.3905 209° Southwest  Level Estimated
03:53AM -24.9063 -47.4258 209° Southwest  Level Estimated
03:54AM -24.9644 -47.4613 209° Southwest  Level Estimated
03:55AM -25.0224 -47.4967 209° Southwest  Level Estimated
03:56AM -25.0805 -47.5321 209° Southwest  Level Estimated
03:57AM -25.1385 -47.5676 209° Southwest  Level Estimated
03:58AM -25.1966 -47.6032 209° Southwest  Level Estimated
03:59AM -25.2546 -47.6387 209° Southwest  Level Estimated
04:00AM -25.3126 -47.6743 209° Southwest  Level Estimated
04:01AM -25.3706 -47.7100 209° Southwest  Level Estimated
04:02AM -25.4286 -47.7456 209° Southwest  Level Estimated
04:03AM -25.4866 -47.7813 209° Southwest  Level Estimated
04:04AM -25.5446 -47.8171 209° Southwest  Level Estimated
04:05AM -25.6026 -47.8528 209° Southwest  Level Estimated
04:06AM -25.6606 -47.8886 209° Southwest  Level Estimated
04:07AM -25.7185 -47.9245 209° Southwest  Level Estimated
04:08AM -25.7765 -47.9603 209° Southwest  Level Estimated
04:09AM -25.8344 -47.9963 209° Southwest  Level Estimated
04:10AM -25.8923 -48.0322 209° Southwest  Level Estimated
04:11AM -25.9503 -48.0682 209° Southwest  Level Estimated
04:12AM -26.0082 -48.1042 209° Southwest  Level Estimated
04:13AM -26.0661 -48.1402 209° Southwest  Level Estimated
04:14AM -26.1240 -48.1763 209° Southwest  Level Estimated
04:15AM -26.1819 -48.2124 209° Southwest  Level Estimated
04:16AM -26.2398 -48.2486 209° Southwest  Level Estimated
04:17AM -26.2976 -48.2848 209° Southwest  Level Estimated
04:18AM -26.3555 -48.3210 209° Southwest  Level Estimated
04:19AM -26.4133 -48.3573 209° Southwest  Level Estimated
04:20AM -26.4712 -48.3936 209° Southwest  Level Estimated
04:21AM -26.5290 -48.4299 209° Southwest  Level Estimated
04:22AM -26.5868 -48.4663 209° Southwest  Level Estimated
04:23AM -26.6446 -48.5027 209° Southwest  Level Estimated
04:24AM -26.7025 -48.5392 209° Southwest  Level Estimated
04:25AM -26.7603 -48.5757 209° Southwest  Level Estimated
04:26AM -26.8181 -48.6122 209° Southwest  Level Estimated
04:27AM -26.8758 -48.6488 209° Southwest  Level Estimated
04:28AM -26.8800 -48.6514 209° Southwest  Level Estimated
04:29AM -26.8800 -48.6514 North  Level Estimated
04:30AM -26.8800 -48.6514 North  Level Estimated
04:31AM -26.8800 -48.6514 North  Level Estimated